Saturday, August 18, 2018, 1:57 PM GMT
Back to Local

CWTY, Trois Rivieres

Location: , , Canada Lat: 46.35
Local Time: 1:57 PM GMT (13:57 GMT) Lon: -72.517
Time Zone: GMT Elev: 19 ft

Show me the last for .
Show Coded

Time T Td Feel RH Dir Speed Gust Alt SLP Vis Weather Sky Remarks
2018-08-18 13:00 65 59 - 82 340° 8 - - 29.89 0 None
2018-08-18 12:00 62 56 - 81 340° 8 - - 29.88 0 None
2018-08-18 11:00 61 58 - 88 330° 8 - - 29.87 0 None
2018-08-18 10:00 61 56 - 84 330° 10 - - 29.86 0 None
2018-08-18 09:00 61 58 - 89 330° 8 - - 29.85 0 None
2018-08-18 08:00 62 58 - 88 350° 8 - - 29.83 0 None
2018-08-18 07:00 62 59 - 88 350° 9 - - 29.83 0 None
2018-08-18 06:00 62 59 - 89 350° 10 - - 29.84 0 None
2018-08-18 05:00 63 61 - 93 350° 9 - - 29.84 0 None
2018-08-18 04:00 64 63 - 96 360° 7 - - 29.83 0 None
2018-08-18 03:00 63 62 - 96 20° 9 - - 29.83 0 None
2018-08-18 02:00 63 62 - 97 350° 9 - - 29.85 0 1-hr Precip Total: 0.19"
2018-08-18 01:00 63 62 - 96 350° 9 21 - 29.83 0 Peak wind: 23 mph (20 kts) from 320° at 13 min
1-hr Precip Total: 0.34"
2018-08-18 00:00 66 64 - 90 40° 6 - - 29.81 0 None
2018-08-17 23:00 66 65 - 95 60° 13 - - 29.82 0 1-hr Precip Total: 0.05"
2018-08-17 22:00 65 63 - 92 20° 7 - - 29.84 0 None
2018-08-17 21:00 66 63 - 91 30° 7 - - 29.87 0 1-hr Precip Total: 0.07"
2018-08-17 20:00 66 63 - 89 30° 7 - - 29.89 0 None
2018-08-17 19:00 68 62 - 80 20° 6 - - 29.91 0 None
2018-08-17 18:00 70 60 - 71 10° 5 - - 29.94 0 None
2018-08-17 17:00 70 60 76 69 30° 5 - - 29.96 0 None
2018-08-17 16:00 68 58 - 70 360° 5 - - 29.99 0 None
2018-08-17 15:00 67 57 - 69 50° 7 - - 30.01 0 None
2018-08-17 14:00 65 56 - 72 60° 7 - - 30.03 0 None

Support USWX by starting your Amazon purchase here.